sensor_id;sensor_type;location;lat;lon;timestamp;P1;durP1;ratioP1;P2;durP2;ratioP2
28587;SDS011;15787;49.662;10.162;2022-07-29T00:02:01;8.65;;;2.30;;
28587;SDS011;15787;49.662;10.162;2022-07-29T00:04:29;4.90;;;2.17;;
28587;SDS011;15787;49.662;10.162;2022-07-29T00:06:58;3.90;;;2.30;;
28587;SDS011;15787;49.662;10.162;2022-07-29T00:09:26;4.72;;;2.40;;
28587;SDS011;15787;49.662;10.162;2022-07-29T00:11:54;4.07;;;2.38;;
28587;SDS011;15787;49.662;10.162;2022-07-29T00:14:26;4.13;;;2.20;;
28587;SDS011;15787;49.662;10.162;2022-07-29T00:16:54;5.00;;;2.30;;
28587;SDS011;15787;49.662;10.162;2022-07-29T00:19:22;6.97;;;2.13;;
28587;SDS011;15787;49.662;10.162;2022-07-29T00:21:50;4.90;;;2.00;;
28587;SDS011;15787;49.662;10.162;2022-07-29T00:24:19;4.93;;;2.00;;
28587;SDS011;15787;49.662;10.162;2022-07-29T00:26:47;4.47;;;1.88;;
28587;SDS011;15787;49.662;10.162;2022-07-29T00:29:15;4.40;;;2.10;;
28587;SDS011;15787;49.662;10.162;2022-07-29T00:31:59;4.00;;;2.05;;
28587;SDS011;15787;49.662;10.162;2022-07-29T00:34:27;6.30;;;2.30;;
28587;SDS011;15787;49.662;10.162;2022-07-29T00:37:13;5.25;;;2.17;;
28587;SDS011;15787;49.662;10.162;2022-07-29T00:39:42;3.22;;;1.85;;
28587;SDS011;15787;49.662;10.162;2022-07-29T00:42:10;6.70;;;2.20;;
28587;SDS011;15787;49.662;10.162;2022-07-29T00:44:38;8.13;;;2.67;;
28587;SDS011;15787;49.662;10.162;2022-07-29T00:47:07;4.45;;;2.20;;
28587;SDS011;15787;49.662;10.162;2022-07-29T00:49:36;3.60;;;2.05;;
28587;SDS011;15787;49.662;10.162;2022-07-29T00:52:07;6.90;;;2.03;;
28587;SDS011;15787;49.662;10.162;2022-07-29T00:54:35;12.98;;;3.75;;
28587;SDS011;15787;49.662;10.162;2022-07-29T00:57:11;5.60;;;2.50;;
28587;SDS011;15787;49.662;10.162;2022-07-29T00:59:40;4.65;;;2.00;;
28587;SDS011;15787;49.662;10.162;2022-07-29T01:02:08;6.15;;;1.90;;
28587;SDS011;15787;49.662;10.162;2022-07-29T01:04:35;6.05;;;2.22;;
28587;SDS011;15787;49.662;10.162;2022-07-29T01:07:04;8.25;;;1.80;;
28587;SDS011;15787;49.662;10.162;2022-07-29T01:09:32;6.38;;;2.10;;
28587;SDS011;15787;49.662;10.162;2022-07-29T01:12:15;5.70;;;2.20;;
28587;SDS011;15787;49.662;10.162;2022-07-29T01:14:45;5.60;;;2.15;;
28587;SDS011;15787;49.662;10.162;2022-07-29T01:17:17;3.55;;;2.30;;
28587;SDS011;15787;49.662;10.162;2022-07-29T01:19:51;4.13;;;2.05;;
28587;SDS011;15787;49.662;10.162;2022-07-29T01:22:38;5.75;;;2.30;;
28587;SDS011;15787;49.662;10.162;2022-07-29T01:25:32;6.70;;;2.60;;
28587;SDS011;15787;49.662;10.162;2022-07-29T01:28:31;3.95;;;2.05;;
28587;SDS011;15787;49.662;10.162;2022-07-29T01:31:07;4.18;;;2.60;;
28587;SDS011;15787;49.662;10.162;2022-07-29T01:33:53;5.03;;;2.53;;
28587;SDS011;15787;49.662;10.162;2022-07-29T01:36:27;5.80;;;2.15;;
28587;SDS011;15787;49.662;10.162;2022-07-29T01:39:02;5.95;;;2.42;;
28587;SDS011;15787;49.662;10.162;2022-07-29T01:41:35;3.17;;;1.95;;
28587;SDS011;15787;49.662;10.162;2022-07-29T01:44:11;3.50;;;2.08;;
28587;SDS011;15787;49.662;10.162;2022-07-29T01:46:44;5.00;;;1.70;;
28587;SDS011;15787;49.662;10.162;2022-07-29T01:49:20;5.63;;;2.20;;
28587;SDS011;15787;49.662;10.162;2022-07-29T01:51:52;3.85;;;2.13;;
28587;SDS011;15787;49.662;10.162;2022-07-29T01:54:25;8.55;;;2.08;;
28587;SDS011;15787;49.662;10.162;2022-07-29T01:56:58;6.53;;;2.35;;
28587;SDS011;15787;49.662;10.162;2022-07-29T01:59:28;5.85;;;2.20;;
28587;SDS011;15787;49.662;10.162;2022-07-29T02:04:26;3.72;;;2.00;;
28587;SDS011;15787;49.662;10.162;2022-07-29T02:06:57;6.57;;;2.77;;
28587;SDS011;15787;49.662;10.162;2022-07-29T02:09:29;6.32;;;2.47;;
28587;SDS011;15787;49.662;10.162;2022-07-29T02:11:59;6.07;;;2.58;;
28587;SDS011;15787;49.662;10.162;2022-07-29T02:14:33;8.27;;;2.45;;
28587;SDS011;15787;49.662;10.162;2022-07-29T02:17:04;5.50;;;2.22;;
28587;SDS011;15787;49.662;10.162;2022-07-29T02:19:33;9.02;;;2.00;;
28587;SDS011;15787;49.662;10.162;2022-07-29T02:22:03;6.07;;;2.05;;
28587;SDS011;15787;49.662;10.162;2022-07-29T02:24:34;5.85;;;2.40;;
28587;SDS011;15787;49.662;10.162;2022-07-29T02:27:04;6.10;;;2.30;;
28587;SDS011;15787;49.662;10.162;2022-07-29T02:29:34;4.93;;;2.08;;
28587;SDS011;15787;49.662;10.162;2022-07-29T02:32:04;3.90;;;2.20;;
28587;SDS011;15787;49.662;10.162;2022-07-29T02:34:35;4.30;;;2.13;;
28587;SDS011;15787;49.662;10.162;2022-07-29T02:37:04;5.40;;;2.30;;
28587;SDS011;15787;49.662;10.162;2022-07-29T02:39:36;3.90;;;2.53;;
28587;SDS011;15787;49.662;10.162;2022-07-29T02:42:07;3.50;;;2.42;;
28587;SDS011;15787;49.662;10.162;2022-07-29T02:44:38;4.55;;;2.22;;
28587;SDS011;15787;49.662;10.162;2022-07-29T02:47:07;4.97;;;2.33;;
28587;SDS011;15787;49.662;10.162;2022-07-29T02:49:40;4.28;;;2.40;;
28587;SDS011;15787;49.662;10.162;2022-07-29T02:52:16;5.45;;;2.20;;
28587;SDS011;15787;49.662;10.162;2022-07-29T02:54:48;6.30;;;2.00;;
28587;SDS011;15787;49.662;10.162;2022-07-29T02:57:21;6.07;;;2.17;;
28587;SDS011;15787;49.662;10.162;2022-07-29T02:59:57;4.82;;;2.70;;
28587;SDS011;15787;49.662;10.162;2022-07-29T03:02:26;6.28;;;2.40;;
28587;SDS011;15787;49.662;10.162;2022-07-29T03:04:57;5.28;;;2.92;;
28587;SDS011;15787;49.662;10.162;2022-07-29T03:07:26;5.07;;;2.45;;
28587;SDS011;15787;49.662;10.162;2022-07-29T03:09:55;4.85;;;2.30;;
28587;SDS011;15787;49.662;10.162;2022-07-29T03:12:23;5.30;;;2.20;;
28587;SDS011;15787;49.662;10.162;2022-07-29T03:14:53;5.07;;;2.88;;
28587;SDS011;15787;49.662;10.162;2022-07-29T03:17:24;6.10;;;2.40;;
28587;SDS011;15787;49.662;10.162;2022-07-29T03:19:52;4.35;;;2.50;;
28587;SDS011;15787;49.662;10.162;2022-07-29T03:22:21;15.90;;;3.20;;
28587;SDS011;15787;49.662;10.162;2022-07-29T03:24:49;6.28;;;2.47;;
28587;SDS011;15787;49.662;10.162;2022-07-29T03:27:16;4.32;;;2.20;;
28587;SDS011;15787;49.662;10.162;2022-07-29T03:29:44;3.42;;;2.13;;
28587;SDS011;15787;49.662;10.162;2022-07-29T03:32:16;5.93;;;2.65;;
28587;SDS011;15787;49.662;10.162;2022-07-29T03:34:52;3.53;;;2.33;;
28587;SDS011;15787;49.662;10.162;2022-07-29T03:37:20;7.20;;;2.78;;
28587;SDS011;15787;49.662;10.162;2022-07-29T03:39:47;3.78;;;2.30;;
28587;SDS011;15787;49.662;10.162;2022-07-29T03:42:17;2.90;;;2.20;;
28587;SDS011;15787;49.662;10.162;2022-07-29T03:47:16;4.90;;;2.85;;
28587;SDS011;15787;49.662;10.162;2022-07-29T03:50:11;5.97;;;2.53;;
28587;SDS011;15787;49.662;10.162;2022-07-29T03:52:42;4.75;;;2.40;;
28587;SDS011;15787;49.662;10.162;2022-07-29T03:55:11;5.22;;;2.40;;
28587;SDS011;15787;49.662;10.162;2022-07-29T03:57:39;4.40;;;2.45;;
28587;SDS011;15787;49.662;10.162;2022-07-29T04:00:08;6.65;;;2.90;;
28587;SDS011;15787;49.662;10.162;2022-07-29T04:02:37;4.85;;;2.70;;
28587;SDS011;15787;49.662;10.162;2022-07-29T04:05:12;6.70;;;2.72;;
28587;SDS011;15787;49.662;10.162;2022-07-29T04:07:40;6.85;;;2.78;;
28587;SDS011;15787;49.662;10.162;2022-07-29T04:10:10;6.97;;;3.00;;
28587;SDS011;15787;49.662;10.162;2022-07-29T04:12:38;7.40;;;3.70;;
28587;SDS011;15787;49.662;10.162;2022-07-29T04:15:07;6.75;;;3.72;;
28587;SDS011;15787;49.662;10.162;2022-07-29T04:17:35;6.68;;;3.30;;
28587;SDS011;15787;49.662;10.162;2022-07-29T04:20:03;6.90;;;3.25;;
28587;SDS011;15787;49.662;10.162;2022-07-29T04:22:33;6.32;;;2.92;;
28587;SDS011;15787;49.662;10.162;2022-07-29T04:25:01;8.73;;;3.10;;
28587;SDS011;15787;49.662;10.162;2022-07-29T04:27:30;4.00;;;2.78;;
28587;SDS011;15787;49.662;10.162;2022-07-29T04:29:58;7.38;;;2.80;;
28587;SDS011;15787;49.662;10.162;2022-07-29T04:32:26;4.65;;;2.80;;
28587;SDS011;15787;49.662;10.162;2022-07-29T04:34:53;3.50;;;2.70;;
28587;SDS011;15787;49.662;10.162;2022-07-29T04:37:21;17.45;;;4.75;;
28587;SDS011;15787;49.662;10.162;2022-07-29T04:39:50;4.63;;;2.83;;
28587;SDS011;15787;49.662;10.162;2022-07-29T04:42:18;5.10;;;2.60;;
28587;SDS011;15787;49.662;10.162;2022-07-29T04:44:53;6.32;;;3.10;;
28587;SDS011;15787;49.662;10.162;2022-07-29T04:47:21;4.00;;;2.67;;
28587;SDS011;15787;49.662;10.162;2022-07-29T04:49:49;7.32;;;2.67;;
28587;SDS011;15787;49.662;10.162;2022-07-29T04:52:16;8.40;;;3.10;;
28587;SDS011;15787;49.662;10.162;2022-07-29T04:54:44;5.55;;;2.92;;
28587;SDS011;15787;49.662;10.162;2022-07-29T04:57:13;3.65;;;2.75;;
28587;SDS011;15787;49.662;10.162;2022-07-29T04:59:41;4.68;;;2.65;;
28587;SDS011;15787;49.662;10.162;2022-07-29T05:02:10;6.85;;;4.18;;
28587;SDS011;15787;49.662;10.162;2022-07-29T05:04:37;5.88;;;2.72;;
28587;SDS011;15787;49.662;10.162;2022-07-29T05:07:05;8.52;;;2.95;;
28587;SDS011;15787;49.662;10.162;2022-07-29T05:09:33;6.43;;;2.70;;
28587;SDS011;15787;49.662;10.162;2022-07-29T05:12:01;5.30;;;2.85;;
28587;SDS011;15787;49.662;10.162;2022-07-29T05:14:30;6.30;;;3.05;;
28587;SDS011;15787;49.662;10.162;2022-07-29T05:16:58;7.90;;;3.00;;
28587;SDS011;15787;49.662;10.162;2022-07-29T05:19:26;5.85;;;3.47;;
28587;SDS011;15787;49.662;10.162;2022-07-29T05:21:54;5.78;;;2.97;;
28587;SDS011;15787;49.662;10.162;2022-07-29T05:24:21;8.02;;;2.80;;
28587;SDS011;15787;49.662;10.162;2022-07-29T05:26:49;5.80;;;3.10;;
28587;SDS011;15787;49.662;10.162;2022-07-29T05:29:17;11.48;;;3.15;;
28587;SDS011;15787;49.662;10.162;2022-07-29T05:32:06;11.80;;;3.25;;
28587;SDS011;15787;49.662;10.162;2022-07-29T05:34:34;9.52;;;2.88;;
28587;SDS011;15787;49.662;10.162;2022-07-29T05:37:15;9.10;;;2.72;;
28587;SDS011;15787;49.662;10.162;2022-07-29T05:39:44;9.27;;;3.20;;
28587;SDS011;15787;49.662;10.162;2022-07-29T05:42:16;5.35;;;3.13;;
28587;SDS011;15787;49.662;10.162;2022-07-29T05:44:43;6.38;;;3.42;;
28587;SDS011;15787;49.662;10.162;2022-07-29T05:47:13;12.82;;;3.40;;
28587;SDS011;15787;49.662;10.162;2022-07-29T05:49:40;6.80;;;2.85;;
28587;SDS011;15787;49.662;10.162;2022-07-29T05:52:08;6.70;;;3.13;;
28587;SDS011;15787;49.662;10.162;2022-07-29T05:54:36;12.75;;;3.75;;
28587;SDS011;15787;49.662;10.162;2022-07-29T05:57:04;9.15;;;3.38;;
28587;SDS011;15787;49.662;10.162;2022-07-29T05:59:35;6.80;;;3.08;;
28587;SDS011;15787;49.662;10.162;2022-07-29T06:04:32;10.30;;;3.15;;
28587;SDS011;15787;49.662;10.162;2022-07-29T06:07:01;12.07;;;3.40;;
28587;SDS011;15787;49.662;10.162;2022-07-29T06:09:29;7.68;;;2.78;;
28587;SDS011;15787;49.662;10.162;2022-07-29T06:11:57;8.05;;;3.15;;
28587;SDS011;15787;49.662;10.162;2022-07-29T06:14:25;6.90;;;2.75;;
28587;SDS011;15787;49.662;10.162;2022-07-29T06:16:54;6.07;;;3.00;;
28587;SDS011;15787;49.662;10.162;2022-07-29T06:19:22;6.40;;;3.50;;
28587;SDS011;15787;49.662;10.162;2022-07-29T06:21:51;7.20;;;3.25;;
28587;SDS011;15787;49.662;10.162;2022-07-29T06:24:19;7.05;;;3.03;;
28587;SDS011;15787;49.662;10.162;2022-07-29T06:26:47;6.82;;;2.45;;
28587;SDS011;15787;49.662;10.162;2022-07-29T06:29:15;5.07;;;2.60;;
28587;SDS011;15787;49.662;10.162;2022-07-29T06:31:43;6.00;;;2.78;;
28587;SDS011;15787;49.662;10.162;2022-07-29T06:34:11;9.02;;;2.85;;
28587;SDS011;15787;49.662;10.162;2022-07-29T06:36:39;8.20;;;2.60;;
28587;SDS011;15787;49.662;10.162;2022-07-29T06:39:08;5.10;;;2.40;;
28587;SDS011;15787;49.662;10.162;2022-07-29T06:41:37;6.03;;;2.30;;
28587;SDS011;15787;49.662;10.162;2022-07-29T06:44:08;8.27;;;2.92;;
28587;SDS011;15787;49.662;10.162;2022-07-29T06:46:37;3.55;;;2.17;;
28587;SDS011;15787;49.662;10.162;2022-07-29T06:49:04;5.85;;;2.13;;
28587;SDS011;15787;49.662;10.162;2022-07-29T06:51:33;5.85;;;2.67;;
28587;SDS011;15787;49.662;10.162;2022-07-29T06:54:01;4.88;;;2.25;;
28587;SDS011;15787;49.662;10.162;2022-07-29T06:59:05;5.25;;;2.55;;
28587;SDS011;15787;49.662;10.162;2022-07-29T07:01:34;8.57;;;2.40;;
28587;SDS011;15787;49.662;10.162;2022-07-29T07:04:03;7.72;;;2.20;;
28587;SDS011;15787;49.662;10.162;2022-07-29T07:06:31;6.60;;;2.70;;
28587;SDS011;15787;49.662;10.162;2022-07-29T07:08:59;4.50;;;2.15;;
28587;SDS011;15787;49.662;10.162;2022-07-29T07:11:27;3.30;;;2.17;;
28587;SDS011;15787;49.662;10.162;2022-07-29T07:13:56;6.05;;;2.00;;
28587;SDS011;15787;49.662;10.162;2022-07-29T07:16:29;4.78;;;1.95;;
28587;SDS011;15787;49.662;10.162;2022-07-29T07:18:57;4.95;;;2.08;;
28587;SDS011;15787;49.662;10.162;2022-07-29T07:21:25;2.92;;;1.83;;
28587;SDS011;15787;49.662;10.162;2022-07-29T07:23:56;7.60;;;2.35;;
28587;SDS011;15787;49.662;10.162;2022-07-29T07:26:24;4.53;;;2.08;;
28587;SDS011;15787;49.662;10.162;2022-07-29T07:28:53;5.40;;;2.20;;
28587;SDS011;15787;49.662;10.162;2022-07-29T07:31:22;6.72;;;2.38;;
28587;SDS011;15787;49.662;10.162;2022-07-29T07:33:50;6.30;;;2.25;;
28587;SDS011;15787;49.662;10.162;2022-07-29T07:36:19;5.72;;;2.40;;
28587;SDS011;15787;49.662;10.162;2022-07-29T07:38:47;8.98;;;2.53;;
28587;SDS011;15787;49.662;10.162;2022-07-29T07:41:15;5.15;;;2.30;;
28587;SDS011;15787;49.662;10.162;2022-07-29T07:43:43;5.70;;;2.55;;
28587;SDS011;15787;49.662;10.162;2022-07-29T07:46:11;6.47;;;2.33;;
28587;SDS011;15787;49.662;10.162;2022-07-29T07:48:43;4.70;;;2.03;;
28587;SDS011;15787;49.662;10.162;2022-07-29T07:51:11;6.22;;;2.25;;
28587;SDS011;15787;49.662;10.162;2022-07-29T07:53:38;3.35;;;2.00;;
28587;SDS011;15787;49.662;10.162;2022-07-29T07:56:07;5.93;;;2.63;;
28587;SDS011;15787;49.662;10.162;2022-07-29T07:58:37;5.25;;;2.00;;
28587;SDS011;15787;49.662;10.162;2022-07-29T08:01:05;6.20;;;2.10;;
28587;SDS011;15787;49.662;10.162;2022-07-29T08:03:33;4.57;;;1.90;;
28587;SDS011;15787;49.662;10.162;2022-07-29T08:06:02;4.30;;;2.05;;
28587;SDS011;15787;49.662;10.162;2022-07-29T08:08:31;6.28;;;1.90;;
28587;SDS011;15787;49.662;10.162;2022-07-29T08:10:59;3.55;;;2.28;;
28587;SDS011;15787;49.662;10.162;2022-07-29T08:13:34;3.80;;;1.88;;
28587;SDS011;15787;49.662;10.162;2022-07-29T08:16:03;7.28;;;2.35;;
28587;SDS011;15787;49.662;10.162;2022-07-29T08:18:39;5.80;;;2.17;;
28587;SDS011;15787;49.662;10.162;2022-07-29T08:21:09;4.32;;;1.90;;
28587;SDS011;15787;49.662;10.162;2022-07-29T08:23:41;2.83;;;1.80;;
28587;SDS011;15787;49.662;10.162;2022-07-29T08:26:24;5.10;;;2.03;;
28587;SDS011;15787;49.662;10.162;2022-07-29T08:28:52;4.45;;;2.08;;
28587;SDS011;15787;49.662;10.162;2022-07-29T08:31:20;6.70;;;2.47;;
28587;SDS011;15787;49.662;10.162;2022-07-29T08:33:48;4.05;;;1.98;;
28587;SDS011;15787;49.662;10.162;2022-07-29T08:36:17;6.38;;;2.03;;
28587;SDS011;15787;49.662;10.162;2022-07-29T08:38:47;2.85;;;1.98;;
28587;SDS011;15787;49.662;10.162;2022-07-29T08:41:15;6.22;;;2.17;;
28587;SDS011;15787;49.662;10.162;2022-07-29T08:43:45;3.28;;;2.17;;
28587;SDS011;15787;49.662;10.162;2022-07-29T08:46:13;3.42;;;1.95;;
28587;SDS011;15787;49.662;10.162;2022-07-29T08:48:41;2.85;;;1.75;;
28587;SDS011;15787;49.662;10.162;2022-07-29T08:51:12;3.58;;;1.90;;
28587;SDS011;15787;49.662;10.162;2022-07-29T08:53:44;4.97;;;2.00;;
28587;SDS011;15787;49.662;10.162;2022-07-29T08:56:13;3.58;;;1.83;;
28587;SDS011;15787;49.662;10.162;2022-07-29T08:58:43;4.55;;;2.08;;
28587;SDS011;15787;49.662;10.162;2022-07-29T09:01:17;3.22;;;1.98;;
28587;SDS011;15787;49.662;10.162;2022-07-29T09:04:09;3.42;;;2.03;;
28587;SDS011;15787;49.662;10.162;2022-07-29T09:06:39;4.95;;;1.90;;
28587;SDS011;15787;49.662;10.162;2022-07-29T09:09:13;3.10;;;2.10;;
28587;SDS011;15787;49.662;10.162;2022-07-29T09:11:42;4.00;;;2.00;;
28587;SDS011;15787;49.662;10.162;2022-07-29T09:14:11;3.45;;;1.70;;
28587;SDS011;15787;49.662;10.162;2022-07-29T09:16:44;5.80;;;2.00;;
28587;SDS011;15787;49.662;10.162;2022-07-29T09:19:19;4.75;;;2.15;;
28587;SDS011;15787;49.662;10.162;2022-07-29T09:24:43;4.90;;;1.80;;
28587;SDS011;15787;49.662;10.162;2022-07-29T09:27:20;6.95;;;1.75;;
28587;SDS011;15787;49.662;10.162;2022-07-29T09:29:55;7.20;;;2.15;;
28587;SDS011;15787;49.662;10.162;2022-07-29T09:32:25;3.72;;;2.00;;
28587;SDS011;15787;49.662;10.162;2022-07-29T09:37:47;5.63;;;2.40;;
28587;SDS011;15787;49.662;10.162;2022-07-29T09:40:17;4.97;;;2.05;;
28587;SDS011;15787;49.662;10.162;2022-07-29T09:42:46;3.58;;;1.70;;
28587;SDS011;15787;49.662;10.162;2022-07-29T09:45:25;4.68;;;1.73;;
28587;SDS011;15787;49.662;10.162;2022-07-29T09:47:54;3.35;;;1.83;;
28587;SDS011;15787;49.662;10.162;2022-07-29T09:50:34;2.97;;;1.73;;
28587;SDS011;15787;49.662;10.162;2022-07-29T09:53:03;4.63;;;2.05;;
28587;SDS011;15787;49.662;10.162;2022-07-29T09:55:32;3.40;;;1.83;;
28587;SDS011;15787;49.662;10.162;2022-07-29T09:58:16;7.90;;;1.90;;
28587;SDS011;15787;49.662;10.162;2022-07-29T10:00:45;2.63;;;1.58;;
28587;SDS011;15787;49.662;10.162;2022-07-29T10:03:14;1.80;;;1.40;;
28587;SDS011;15787;49.662;10.162;2022-07-29T10:05:44;4.43;;;1.50;;
28587;SDS011;15787;49.662;10.162;2022-07-29T10:08:12;2.40;;;1.60;;
28587;SDS011;15787;49.662;10.162;2022-07-29T10:10:42;2.60;;;1.55;;
28587;SDS011;15787;49.662;10.162;2022-07-29T10:13:11;5.43;;;1.60;;
28587;SDS011;15787;49.662;10.162;2022-07-29T10:15:43;5.95;;;1.90;;
28587;SDS011;15787;49.662;10.162;2022-07-29T10:18:13;3.80;;;1.80;;
28587;SDS011;15787;49.662;10.162;2022-07-29T10:20:44;3.38;;;2.03;;
28587;SDS011;15787;49.662;10.162;2022-07-29T10:23:12;3.65;;;2.20;;
28587;SDS011;15787;49.662;10.162;2022-07-29T10:25:41;6.22;;;1.50;;
28587;SDS011;15787;49.662;10.162;2022-07-29T10:28:12;4.28;;;1.95;;
28587;SDS011;15787;49.662;10.162;2022-07-29T10:30:42;9.70;;;1.80;;
28587;SDS011;15787;49.662;10.162;2022-07-29T10:33:22;2.42;;;1.48;;
28587;SDS011;15787;49.662;10.162;2022-07-29T10:36:10;6.10;;;1.70;;
28587;SDS011;15787;49.662;10.162;2022-07-29T10:38:52;4.88;;;1.98;;
28587;SDS011;15787;49.662;10.162;2022-07-29T10:41:50;2.67;;;1.40;;
28587;SDS011;15787;49.662;10.162;2022-07-29T10:44:28;5.70;;;1.77;;
28587;SDS011;15787;49.662;10.162;2022-07-29T10:46:58;2.20;;;1.40;;
28587;SDS011;15787;49.662;10.162;2022-07-29T10:49:27;2.35;;;1.50;;
28587;SDS011;15787;49.662;10.162;2022-07-29T10:51:58;2.15;;;1.35;;
28587;SDS011;15787;49.662;10.162;2022-07-29T10:54:41;3.70;;;1.63;;
28587;SDS011;15787;49.662;10.162;2022-07-29T10:57:19;3.03;;;1.58;;
28587;SDS011;15787;49.662;10.162;2022-07-29T11:00:26;3.78;;;1.50;;
28587;SDS011;15787;49.662;10.162;2022-07-29T11:02:56;2.30;;;1.40;;
28587;SDS011;15787;49.662;10.162;2022-07-29T11:05:24;3.53;;;1.63;;
28587;SDS011;15787;49.662;10.162;2022-07-29T11:08:18;2.95;;;1.55;;
28587;SDS011;15787;49.662;10.162;2022-07-29T11:10:52;2.10;;;1.52;;
28587;SDS011;15787;49.662;10.162;2022-07-29T11:13:50;5.40;;;2.78;;
28587;SDS011;15787;49.662;10.162;2022-07-29T11:16:22;3.97;;;1.52;;
28587;SDS011;15787;49.662;10.162;2022-07-29T11:21:56;4.35;;;1.80;;
28587;SDS011;15787;49.662;10.162;2022-07-29T11:24:24;6.57;;;1.90;;
28587;SDS011;15787;49.662;10.162;2022-07-29T11:27:10;6.22;;;1.90;;
28587;SDS011;15787;49.662;10.162;2022-07-29T11:29:53;5.38;;;2.30;;
28587;SDS011;15787;49.662;10.162;2022-07-29T11:32:24;3.40;;;1.50;;
28587;SDS011;15787;49.662;10.162;2022-07-29T11:35:13;5.13;;;1.70;;
28587;SDS011;15787;49.662;10.162;2022-07-29T11:37:44;7.60;;;1.60;;
28587;SDS011;15787;49.662;10.162;2022-07-29T11:40:23;3.78;;;1.70;;
28587;SDS011;15787;49.662;10.162;2022-07-29T11:42:51;4.88;;;1.50;;
28587;SDS011;15787;49.662;10.162;2022-07-29T11:45:25;5.63;;;1.97;;
28587;SDS011;15787;49.662;10.162;2022-07-29T11:48:14;4.32;;;2.00;;
28587;SDS011;15787;49.662;10.162;2022-07-29T11:50:57;8.05;;;2.08;;
28587;SDS011;15787;49.662;10.162;2022-07-29T11:53:26;4.03;;;1.67;;
28587;SDS011;15787;49.662;10.162;2022-07-29T11:55:58;4.88;;;1.75;;
28587;SDS011;15787;49.662;10.162;2022-07-29T11:58:48;2.15;;;1.52;;
28587;SDS011;15787;49.662;10.162;2022-07-29T12:01:17;6.45;;;1.75;;
28587;SDS011;15787;49.662;10.162;2022-07-29T12:03:45;3.03;;;1.60;;
28587;SDS011;15787;49.662;10.162;2022-07-29T12:06:13;5.00;;;1.70;;
28587;SDS011;15787;49.662;10.162;2022-07-29T12:08:46;4.95;;;1.55;;
28587;SDS011;15787;49.662;10.162;2022-07-29T12:11:15;4.47;;;1.35;;
28587;SDS011;15787;49.662;10.162;2022-07-29T12:13:47;5.20;;;2.38;;
28587;SDS011;15787;49.662;10.162;2022-07-29T12:16:15;6.80;;;1.52;;
28587;SDS011;15787;49.662;10.162;2022-07-29T12:18:56;5.70;;;2.05;;
28587;SDS011;15787;49.662;10.162;2022-07-29T12:21:25;3.00;;;1.77;;
28587;SDS011;15787;49.662;10.162;2022-07-29T12:23:54;3.30;;;1.70;;
28587;SDS011;15787;49.662;10.162;2022-07-29T12:26:32;3.17;;;1.70;;
28587;SDS011;15787;49.662;10.162;2022-07-29T12:34:11;5.60;;;1.75;;
28587;SDS011;15787;49.662;10.162;2022-07-29T12:36:40;3.42;;;1.67;;
28587;SDS011;15787;49.662;10.162;2022-07-29T12:39:08;4.05;;;1.75;;
28587;SDS011;15787;49.662;10.162;2022-07-29T12:41:38;6.83;;;2.10;;
28587;SDS011;15787;49.662;10.162;2022-07-29T12:44:06;3.28;;;1.85;;
28587;SDS011;15787;49.662;10.162;2022-07-29T12:46:34;4.72;;;1.70;;
28587;SDS011;15787;49.662;10.162;2022-07-29T12:49:04;6.38;;;1.40;;
28587;SDS011;15787;49.662;10.162;2022-07-29T12:51:35;7.18;;;2.28;;
28587;SDS011;15787;49.662;10.162;2022-07-29T12:54:05;5.45;;;1.70;;
28587;SDS011;15787;49.662;10.162;2022-07-29T12:56:37;2.97;;;1.73;;
28587;SDS011;15787;49.662;10.162;2022-07-29T12:59:13;3.30;;;1.92;;
28587;SDS011;15787;49.662;10.162;2022-07-29T13:01:43;3.80;;;1.60;;
28587;SDS011;15787;49.662;10.162;2022-07-29T13:04:23;5.50;;;1.30;;
28587;SDS011;15787;49.662;10.162;2022-07-29T13:06:59;6.05;;;1.77;;
28587;SDS011;15787;49.662;10.162;2022-07-29T13:09:36;3.85;;;1.50;;
28587;SDS011;15787;49.662;10.162;2022-07-29T13:12:05;5.40;;;1.80;;
28587;SDS011;15787;49.662;10.162;2022-07-29T13:14:37;5.25;;;1.77;;
28587;SDS011;15787;49.662;10.162;2022-07-29T13:17:06;3.58;;;1.90;;
28587;SDS011;15787;49.662;10.162;2022-07-29T13:19:36;4.85;;;1.80;;
28587;SDS011;15787;49.662;10.162;2022-07-29T13:22:08;6.75;;;2.60;;
28587;SDS011;15787;49.662;10.162;2022-07-29T13:24:46;7.57;;;2.00;;
28587;SDS011;15787;49.662;10.162;2022-07-29T13:27:18;5.75;;;2.22;;
28587;SDS011;15787;49.662;10.162;2022-07-29T13:29:47;5.38;;;2.30;;
28587;SDS011;15787;49.662;10.162;2022-07-29T13:32:17;10.63;;;2.00;;
28587;SDS011;15787;49.662;10.162;2022-07-29T13:34:54;4.20;;;1.88;;
28587;SDS011;15787;49.662;10.162;2022-07-29T13:37:24;6.38;;;2.00;;
28587;SDS011;15787;49.662;10.162;2022-07-29T13:39:55;6.88;;;2.00;;
28587;SDS011;15787;49.662;10.162;2022-07-29T13:42:23;6.00;;;2.00;;
28587;SDS011;15787;49.662;10.162;2022-07-29T13:44:52;5.50;;;2.13;;
28587;SDS011;15787;49.662;10.162;2022-07-29T13:47:20;5.13;;;2.33;;
28587;SDS011;15787;49.662;10.162;2022-07-29T13:49:58;5.20;;;2.05;;
28587;SDS011;15787;49.662;10.162;2022-07-29T13:52:28;4.40;;;2.72;;
28587;SDS011;15787;49.662;10.162;2022-07-29T13:54:56;5.00;;;1.92;;
28587;SDS011;15787;49.662;10.162;2022-07-29T13:57:24;6.22;;;1.90;;
28587;SDS011;15787;49.662;10.162;2022-07-29T13:59:52;4.35;;;2.05;;
28587;SDS011;15787;49.662;10.162;2022-07-29T14:02:20;3.15;;;1.98;;
28587;SDS011;15787;49.662;10.162;2022-07-29T14:04:51;4.25;;;1.90;;
28587;SDS011;15787;49.662;10.162;2022-07-29T14:07:20;10.65;;;2.35;;
28587;SDS011;15787;49.662;10.162;2022-07-29T14:09:50;4.35;;;2.03;;
28587;SDS011;15787;49.662;10.162;2022-07-29T14:12:18;6.85;;;2.30;;
28587;SDS011;15787;49.662;10.162;2022-07-29T14:14:46;6.35;;;2.20;;
28587;SDS011;15787;49.662;10.162;2022-07-29T14:17:14;8.35;;;3.08;;
28587;SDS011;15787;49.662;10.162;2022-07-29T14:19:42;7.80;;;1.90;;
28587;SDS011;15787;49.662;10.162;2022-07-29T14:22:10;7.25;;;2.20;;
28587;SDS011;15787;49.662;10.162;2022-07-29T14:24:38;3.15;;;1.95;;
28587;SDS011;15787;49.662;10.162;2022-07-29T14:27:09;4.45;;;2.45;;
28587;SDS011;15787;49.662;10.162;2022-07-29T14:29:37;12.85;;;2.45;;
28587;SDS011;15787;49.662;10.162;2022-07-29T14:32:06;10.52;;;2.80;;
28587;SDS011;15787;49.662;10.162;2022-07-29T14:34:34;10.18;;;2.28;;
28587;SDS011;15787;49.662;10.162;2022-07-29T14:37:02;7.10;;;2.40;;
28587;SDS011;15787;49.662;10.162;2022-07-29T14:39:32;6.47;;;2.30;;
28587;SDS011;15787;49.662;10.162;2022-07-29T14:42:03;8.95;;;2.42;;
28587;SDS011;15787;49.662;10.162;2022-07-29T14:44:32;4.63;;;2.17;;
28587;SDS011;15787;49.662;10.162;2022-07-29T14:47:00;5.33;;;2.50;;
28587;SDS011;15787;49.662;10.162;2022-07-29T14:49:33;3.58;;;2.35;;
28587;SDS011;15787;49.662;10.162;2022-07-29T14:52:01;8.25;;;2.13;;
28587;SDS011;15787;49.662;10.162;2022-07-29T14:54:30;6.60;;;3.08;;
28587;SDS011;15787;49.662;10.162;2022-07-29T14:56:58;3.53;;;2.20;;
28587;SDS011;15787;49.662;10.162;2022-07-29T14:59:26;5.28;;;2.20;;
28587;SDS011;15787;49.662;10.162;2022-07-29T15:01:55;6.03;;;2.40;;
28587;SDS011;15787;49.662;10.162;2022-07-29T15:04:24;8.18;;;2.90;;
28587;SDS011;15787;49.662;10.162;2022-07-29T15:06:51;8.85;;;2.95;;
28587;SDS011;15787;49.662;10.162;2022-07-29T15:09:21;5.53;;;2.78;;
28587;SDS011;15787;49.662;10.162;2022-07-29T15:11:49;7.20;;;3.58;;
28587;SDS011;15787;49.662;10.162;2022-07-29T15:14:17;6.57;;;3.03;;
28587;SDS011;15787;49.662;10.162;2022-07-29T15:16:44;10.52;;;3.60;;
28587;SDS011;15787;49.662;10.162;2022-07-29T15:19:15;8.07;;;3.03;;
28587;SDS011;15787;49.662;10.162;2022-07-29T15:21:42;6.45;;;3.70;;